Terminal Aerodrome Forecast
Issued by NWS

Home | Current Version | Previous Version | Graphics & Text | Print | Product List | Glossary On
Versions: 1 2 3 4 5 6 7 8 9 10 11 12 13 14 15 16 17 18 19
546
FTUS43 KABR 270722 AAA
TAFMBG
TAF AMD
KMBG 270722Z 2707/2806 06009KT P6SM -RA SCT008 OVC020
     FM271000 06015KT 5SM RA BR OVC005
     FM271600 04015KT 3SM RA BR OVC010=

USA.gov is the U.S. government's official web portal to all federal, state and local government web resources and services.